createdAt,value
2018-10-12T00:01:12.325Z,97.65
2018-10-12T00:03:40.390Z,98.06
2018-10-12T00:06:14.543Z,98.03
2018-10-12T00:08:42.642Z,97.86
2018-10-12T00:11:10.756Z,96.81
2018-10-12T00:13:38.911Z,96.65
2018-10-12T00:16:07.092Z,96.96
2018-10-12T00:18:35.181Z,97.28
2018-10-12T00:21:03.339Z,97.92
2018-10-12T00:23:31.423Z,97.58
2018-10-12T00:25:59.575Z,96.68
2018-10-12T00:28:27.676Z,96.70
2018-10-12T00:31:09.393Z,96.76
2018-10-12T00:33:38.011Z,96.89
2018-10-12T00:36:17.600Z,97.64
2018-10-12T00:38:45.879Z,97.40
2018-10-12T00:41:14.003Z,96.29
2018-10-12T00:43:42.648Z,96.92
2018-10-12T00:46:17.992Z,95.99
2018-10-12T00:48:46.075Z,95.57
2018-10-12T00:51:17.719Z,95.94
2018-10-12T00:53:49.459Z,96.03
2018-10-12T00:56:17.630Z,95.41
2018-10-12T00:58:45.713Z,95.52
2018-10-12T01:01:13.890Z,95.37
2018-10-12T01:03:41.983Z,95.66
2018-10-12T01:06:10.100Z,94.60
2018-10-12T01:08:38.183Z,95.32
2018-10-12T01:11:06.321Z,95.66
2018-10-12T01:13:34.488Z,95.85
2018-10-12T01:16:02.589Z,95.15
2018-10-12T01:18:30.689Z,95.66
2018-10-12T01:20:58.809Z,95.72
2018-10-12T01:23:26.893Z,96.43
2018-10-12T01:25:55.039Z,96.83
2018-10-12T01:28:23.128Z,97.24
2018-10-12T01:30:51.262Z,97.05
2018-10-12T01:33:19.403Z,96.34
2018-10-12T01:35:47.473Z,97.49
2018-10-12T01:38:15.561Z,97.31
2018-10-12T01:40:43.647Z,97.46
2018-10-12T01:43:11.805Z,97.47
2018-10-12T01:45:39.905Z,96.76
2018-10-12T01:48:07.995Z,96.92
2018-10-12T01:50:36.114Z,97.83
2018-10-12T01:53:04.195Z,97.18
2018-10-12T01:55:32.299Z,97.22
2018-10-12T01:58:00.449Z,97.97
2018-10-12T02:00:28.581Z,97.19
2018-10-12T02:02:56.715Z,96.74
2018-10-12T02:05:24.844Z,97.06
2018-10-12T02:07:52.932Z,97.33
2018-10-12T02:10:21.003Z,96.96
2018-10-12T02:12:49.093Z,96.57
2018-10-12T02:15:17.173Z,96.53
2018-10-12T02:17:45.231Z,96.68
2018-10-12T02:20:13.681Z,96.56
2018-10-12T02:22:42.264Z,95.63
2018-10-12T02:25:11.172Z,95.24
2018-10-12T02:27:39.799Z,96.09
2018-10-12T02:30:08.401Z,96.38
2018-10-12T02:32:36.600Z,97.27
2018-10-12T02:35:05.104Z,97.07
2018-10-12T02:37:33.393Z,96.51
2018-10-12T02:40:01.564Z,96.46
2018-10-12T02:42:29.640Z,96.77
2018-10-12T02:44:57.721Z,96.46
2018-10-12T02:47:25.795Z,97.34
2018-10-12T02:49:53.911Z,97.43
2018-10-12T02:52:22.016Z,97.15
2018-10-12T02:54:50.113Z,97.92
2018-10-12T02:57:18.255Z,97.65
2018-10-12T02:59:46.375Z,97.97
2018-10-12T03:02:14.487Z,96.68
2018-10-12T03:04:42.609Z,97.04
2018-10-12T03:07:10.693Z,97.35
2018-10-12T03:09:38.791Z,96.63
2018-10-12T03:12:06.886Z,96.71
2018-10-12T03:14:34.967Z,96.70
2018-10-12T03:17:03.033Z,96.17
2018-10-12T03:19:31.121Z,96.23
2018-10-12T03:21:59.211Z,97.00
2018-10-12T03:24:27.292Z,96.69
2018-10-12T03:26:55.371Z,96.56
2018-10-12T03:29:23.440Z,96.99
2018-10-12T03:31:51.539Z,96.33
2018-10-12T03:34:19.974Z,95.41
2018-10-12T03:36:48.065Z,96.00
2018-10-12T03:39:16.140Z,96.20
2018-10-12T03:41:44.315Z,96.35
2018-10-12T03:44:12.399Z,95.38
2018-10-12T03:46:40.493Z,96.10
2018-10-12T03:49:08.570Z,96.37
2018-10-12T03:51:36.700Z,96.19
2018-10-12T03:54:04.818Z,96.30
2018-10-12T03:56:32.893Z,96.74
2018-10-12T03:59:00.963Z,96.13
2018-10-12T04:01:29.059Z,96.08
2018-10-12T04:03:57.153Z,95.52
2018-10-12T04:06:25.407Z,95.60
2018-10-12T04:08:53.500Z,95.94
2018-10-12T04:11:21.599Z,96.50
2018-10-12T04:13:49.704Z,95.74
2018-10-12T04:16:17.831Z,95.98
2018-10-12T04:18:45.917Z,96.15
2018-10-12T04:21:14.011Z,96.80
2018-10-12T04:23:42.167Z,96.73
2018-10-12T04:26:10.437Z,96.62
2018-10-12T04:28:38.549Z,96.17
2018-10-12T04:31:06.616Z,96.51
2018-10-12T04:33:34.700Z,98.12
2018-10-12T04:36:02.775Z,97.72
2018-10-12T04:41:17.069Z,98.32
2018-10-12T04:43:46.193Z,97.33
2018-10-12T04:46:20.603Z,96.99
2018-10-12T04:48:49.583Z,97.09
2018-10-12T04:51:22.076Z,97.29
2018-10-12T04:53:50.386Z,97.47
2018-10-12T04:56:19.568Z,97.85
2018-10-12T04:58:47.677Z,98.37
2018-10-12T05:01:15.901Z,98.63
2018-10-12T05:03:43.857Z,98.96
2018-10-12T05:06:11.957Z,98.95
2018-10-12T05:08:40.197Z,98.87
2018-10-12T05:11:08.324Z,98.44
2018-10-12T05:13:36.775Z,98.51
2018-10-12T05:16:05.650Z,97.68
2018-10-12T05:18:33.772Z,98.12
2018-10-12T05:21:02.664Z,97.96
2018-10-12T05:23:30.863Z,98.23
2018-10-12T05:25:59.468Z,98.21
2018-10-12T05:28:28.273Z,98.13
2018-10-12T05:30:56.542Z,97.53
2018-10-12T05:33:24.740Z,97.41
2018-10-12T05:35:53.119Z,97.54
2018-10-12T05:38:21.931Z,98.06
2018-10-12T05:40:50.055Z,98.33
2018-10-12T05:43:18.448Z,98.26
2018-10-12T05:45:47.250Z,98.91
2018-10-12T05:48:26.931Z,98.67
2018-10-12T05:50:55.240Z,99.01
2018-10-12T05:53:24.261Z,99.28
2018-10-12T05:55:52.425Z,99.29
2018-10-12T05:58:20.755Z,99.57
2018-10-12T06:00:49.377Z,98.79
2018-10-12T06:03:17.455Z,98.88
2018-10-12T06:05:45.550Z,98.54
2018-10-12T06:08:13.632Z,98.57
2018-10-12T06:10:41.727Z,98.41
2018-10-12T06:13:09.816Z,98.85
2018-10-12T06:15:37.926Z,98.25
2018-10-12T06:18:07.932Z,98.77
2018-10-12T06:20:36.172Z,98.33
2018-10-12T06:23:04.328Z,98.13
2018-10-12T06:25:32.494Z,98.06
2018-10-12T06:28:00.707Z,99.15
2018-10-12T06:30:28.839Z,99.60
2018-10-12T06:32:57.021Z,98.67
2018-10-12T06:35:25.418Z,98.66
2018-10-12T06:37:53.626Z,98.48
2018-10-12T06:40:21.827Z,97.84
2018-10-12T06:42:49.923Z,97.83
2018-10-12T06:45:18.047Z,97.93
2018-10-12T06:47:46.165Z,98.13
2018-10-12T06:50:14.243Z,97.47
2018-10-12T06:52:42.311Z,97.50
2018-10-12T06:55:10.431Z,97.28
2018-10-12T06:57:38.507Z,97.69
2018-10-12T07:00:06.851Z,98.10
2018-10-12T07:02:34.864Z,97.37
2018-10-12T07:05:02.965Z,97.72
2018-10-12T07:07:31.059Z,98.10
2018-10-12T07:09:59.148Z,98.17
2018-10-12T07:12:27.231Z,97.61
2018-10-12T07:14:55.323Z,98.13
2018-10-12T07:17:24.080Z,98.22
2018-10-12T07:19:52.249Z,98.37
2018-10-12T07:22:20.395Z,98.33
2018-10-12T07:24:48.493Z,99.06
2018-10-12T07:27:16.611Z,98.93
2018-10-12T07:29:45.144Z,99.17
2018-10-12T07:32:13.285Z,100.00
2018-10-12T07:34:41.392Z,100.00
2018-10-12T07:37:09.542Z,100.00
2018-10-12T07:39:37.571Z,100.00
2018-10-12T07:42:05.701Z,100.00
2018-10-12T07:44:33.783Z,100.00
2018-10-12T07:47:02.012Z,100.00
2018-10-12T07:49:40.556Z,100.00
2018-10-12T07:52:08.610Z,100.00
2018-10-12T07:54:38.350Z,100.00
2018-10-12T07:57:12.498Z,100.00
2018-10-12T07:59:41.285Z,100.00
2018-10-12T08:02:11.320Z,100.00
2018-10-12T08:04:40.567Z,100.00
2018-10-12T08:07:09.019Z,99.15
2018-10-12T08:09:37.727Z,97.73
2018-10-12T08:12:05.839Z,97.37
2018-10-12T08:17:27.911Z,96.48
2018-10-12T08:19:56.015Z,96.35
2018-10-12T08:22:24.171Z,97.15
2018-10-12T08:24:52.280Z,95.99
2018-10-12T08:27:20.449Z,96.34
2018-10-12T08:29:48.620Z,95.52
2018-10-12T08:32:16.746Z,94.69
2018-10-12T08:34:44.888Z,94.08
2018-10-12T08:37:13.045Z,94.29
2018-10-12T08:39:41.131Z,93.12
2018-10-12T08:42:09.236Z,92.93
2018-10-12T08:44:37.371Z,93.39
2018-10-12T08:47:05.544Z,92.76
2018-10-12T08:49:33.651Z,92.27
2018-10-12T08:52:01.807Z,92.03
2018-10-12T08:54:29.968Z,91.53
2018-10-12T08:56:58.055Z,91.85
2018-10-12T08:59:26.163Z,90.73
2018-10-12T09:01:54.256Z,90.18
2018-10-12T09:04:22.823Z,89.46
2018-10-12T09:06:50.932Z,89.62
2018-10-12T09:09:19.098Z,88.60
2018-10-12T09:11:47.224Z,87.11
2018-10-12T09:14:15.325Z,86.88
2018-10-12T09:16:43.408Z,86.54
2018-10-12T09:19:11.502Z,87.26
2018-10-12T09:21:39.625Z,86.43
2018-10-12T09:24:07.696Z,86.57
2018-10-12T09:26:35.898Z,85.85
2018-10-12T09:29:04.110Z,85.18
2018-10-12T09:31:32.203Z,84.42
2018-10-12T09:34:00.390Z,84.93
2018-10-12T09:36:28.576Z,84.35
2018-10-12T09:38:56.734Z,84.63
2018-10-12T09:41:24.867Z,83.62
2018-10-12T09:43:54.632Z,83.36
2018-10-12T09:46:23.019Z,83.29
2018-10-12T09:48:51.109Z,80.94
2018-10-12T09:51:19.200Z,80.95
2018-10-12T09:53:47.394Z,81.30
2018-10-12T09:56:16.540Z,81.22
2018-10-12T09:58:45.278Z,81.42
2018-10-12T10:01:18.793Z,80.06
2018-10-12T10:03:52.263Z,80.21
2018-10-12T10:06:20.412Z,80.20
2018-10-12T10:08:48.700Z,79.77
2018-10-12T10:11:16.708Z,79.07
2018-10-12T10:13:44.883Z,78.55
2018-10-12T10:16:12.973Z,78.48
2018-10-12T10:18:41.068Z,78.04
2018-10-12T10:21:09.181Z,76.37
2018-10-12T10:23:37.344Z,75.68
2018-10-12T10:26:05.455Z,76.09
2018-10-12T10:28:33.540Z,75.46
2018-10-12T10:31:01.628Z,75.92
2018-10-12T10:33:29.737Z,75.68
2018-10-12T10:35:57.825Z,75.72
2018-10-12T10:38:25.903Z,74.91
2018-10-12T10:40:54.010Z,74.36
2018-10-12T10:43:22.104Z,74.44
2018-10-12T10:45:50.208Z,74.63
2018-10-12T10:48:18.304Z,75.40
2018-10-12T10:50:46.507Z,75.45
2018-10-12T10:53:14.639Z,75.24
2018-10-12T10:55:42.809Z,74.82
2018-10-12T10:58:10.911Z,74.71
2018-10-12T11:00:38.998Z,73.72
2018-10-12T11:03:07.436Z,73.98
2018-10-12T11:05:35.517Z,74.41
2018-10-12T11:08:03.597Z,73.70
2018-10-12T11:10:31.669Z,73.73
2018-10-12T11:12:59.763Z,73.19
2018-10-12T11:15:27.814Z,73.40
2018-10-12T11:17:55.903Z,72.43
2018-10-12T11:20:24.149Z,72.31
2018-10-12T11:22:52.166Z,72.42
2018-10-12T11:25:20.254Z,71.21
2018-10-12T11:27:48.377Z,70.61
2018-10-12T11:30:16.496Z,71.92
2018-10-12T11:32:44.629Z,71.22
2018-10-12T11:35:12.739Z,71.30
2018-10-12T11:37:40.835Z,70.48
2018-10-12T11:40:08.928Z,69.74
2018-10-12T11:42:48.346Z,70.01
2018-10-12T11:45:16.478Z,70.55
2018-10-12T11:47:44.512Z,69.87
2018-10-12T11:50:12.608Z,68.01
2018-10-12T11:52:40.708Z,67.57
2018-10-12T11:55:08.819Z,66.87
2018-10-12T11:57:36.902Z,66.90
2018-10-12T12:00:05.000Z,65.86
2018-10-12T12:02:33.168Z,66.91
2018-10-12T12:05:01.275Z,66.01
2018-10-12T12:07:29.352Z,66.56
2018-10-12T12:09:57.423Z,66.18
2018-10-12T12:12:25.588Z,67.12
2018-10-12T12:14:53.688Z,66.37
2018-10-12T12:17:21.756Z,65.08
2018-10-12T12:19:49.894Z,65.44
2018-10-12T12:22:18.104Z,65.29
2018-10-12T12:24:46.214Z,64.70
2018-10-12T12:27:14.684Z,64.20
2018-10-12T12:29:42.816Z,62.69
2018-10-12T12:32:10.904Z,62.78
2018-10-12T12:34:39.118Z,62.05
2018-10-12T12:37:07.075Z,60.56
2018-10-12T12:39:35.320Z,61.37
2018-10-12T12:42:03.409Z,61.71
2018-10-12T12:44:32.015Z,61.57
2018-10-12T12:47:00.088Z,60.84
2018-10-12T12:49:28.386Z,60.73
2018-10-12T12:51:56.260Z,60.61
2018-10-12T12:54:24.852Z,60.70
2018-10-12T12:56:54.830Z,60.37
2018-10-12T12:59:22.915Z,59.68
2018-10-12T13:01:51.108Z,59.48
2018-10-12T13:04:19.270Z,59.36
2018-10-12T13:06:47.435Z,60.32
2018-10-12T13:09:15.590Z,58.92
2018-10-12T13:11:43.763Z,59.79
2018-10-12T13:14:11.857Z,59.74
2018-10-12T13:16:39.941Z,59.23
2018-10-12T13:19:08.069Z,58.50
2018-10-12T13:21:36.139Z,58.18
2018-10-12T13:24:04.292Z,57.46
2018-10-12T13:26:32.417Z,55.96
2018-10-12T13:29:00.499Z,57.03
2018-10-12T13:31:28.601Z,57.43
2018-10-12T13:33:56.695Z,56.80
2018-10-12T13:36:24.805Z,56.57
2018-10-12T13:38:52.873Z,56.40
2018-10-12T13:41:20.999Z,56.43
2018-10-12T13:43:49.100Z,56.05
2018-10-12T13:46:17.234Z,54.67
2018-10-12T13:48:45.331Z,55.00
2018-10-12T13:51:13.556Z,54.99
2018-10-12T13:53:42.936Z,54.62
2018-10-12T13:56:13.454Z,54.29
2018-10-12T13:58:41.928Z,53.79
2018-10-12T14:01:11.431Z,53.53
2018-10-12T14:03:44.853Z,53.72
2018-10-12T14:06:15.933Z,53.73
2018-10-12T14:08:45.185Z,53.83
2018-10-12T14:11:13.991Z,53.33
2018-10-12T14:13:56.812Z,53.49
2018-10-12T14:16:25.749Z,53.78
2018-10-12T14:18:55.226Z,52.92
2018-10-12T14:21:23.436Z,53.70
2018-10-12T14:23:53.882Z,53.65
2018-10-12T14:26:39.439Z,52.71
2018-10-12T14:29:16.556Z,52.75
2018-10-12T14:31:47.065Z,53.34
2018-10-12T14:34:17.163Z,53.05
2018-10-12T14:36:50.160Z,53.19
2018-10-12T14:39:20.731Z,52.72
2018-10-12T14:41:54.982Z,52.75
2018-10-12T14:44:29.212Z,53.29
2018-10-12T14:46:57.526Z,53.71
2018-10-12T14:49:25.609Z,52.96
2018-10-12T14:51:53.700Z,52.72
2018-10-12T14:54:21.903Z,51.42
2018-10-12T14:56:50.018Z,51.42
2018-10-12T14:59:18.632Z,50.56
2018-10-12T15:01:47.340Z,50.64
2018-10-12T15:04:15.588Z,50.53
2018-10-12T15:06:44.290Z,51.75
2018-10-12T15:09:13.705Z,51.46
2018-10-12T15:11:41.991Z,51.78
2018-10-12T15:14:10.359Z,50.28
2018-10-12T15:16:38.511Z,51.13
2018-10-12T15:19:06.962Z,52.12
2018-10-12T15:21:35.109Z,51.95
2018-10-12T15:24:03.147Z,52.43
2018-10-12T15:26:31.244Z,51.03
2018-10-12T15:28:59.328Z,51.15
2018-10-12T15:31:27.487Z,51.52
2018-10-12T15:33:55.564Z,51.24
2018-10-12T15:36:23.672Z,52.72
2018-10-12T15:38:51.762Z,52.96
2018-10-12T15:41:20.204Z,53.09
2018-10-12T15:43:48.533Z,52.95
2018-10-12T15:46:16.744Z,52.80
2018-10-12T15:48:44.909Z,53.28
2018-10-12T15:51:13.122Z,53.78
2018-10-12T15:53:41.075Z,53.83
2018-10-12T15:56:09.239Z,54.79
2018-10-12T15:58:37.256Z,54.14
2018-10-12T16:01:06.290Z,54.21
2018-10-12T16:03:34.380Z,54.88
2018-10-12T16:06:02.529Z,55.04
2018-10-12T16:08:30.568Z,55.65
2018-10-12T16:10:58.752Z,55.99
2018-10-12T16:13:26.912Z,56.72
2018-10-12T16:15:55.030Z,56.74
2018-10-12T16:18:23.161Z,57.09
2018-10-12T16:20:51.276Z,57.55
2018-10-12T16:23:19.335Z,57.98
2018-10-12T16:26:02.871Z,58.96
2018-10-12T16:28:30.964Z,60.33
2018-10-12T16:30:59.287Z,61.01
2018-10-12T16:33:27.372Z,61.04
2018-10-12T16:38:24.006Z,62.04
2018-10-12T16:40:52.118Z,62.67
2018-10-12T16:43:20.219Z,63.51
2018-10-12T16:45:49.459Z,63.38
2018-10-12T16:48:17.545Z,63.83
2018-10-12T16:50:45.728Z,64.09
2018-10-12T16:53:13.956Z,64.10
2018-10-12T16:55:42.135Z,64.62
2018-10-12T16:58:11.354Z,65.36
2018-10-12T17:00:41.291Z,66.10
2018-10-12T17:03:10.519Z,65.29
2018-10-12T17:05:41.256Z,65.18
2018-10-12T17:08:10.312Z,66.18
2018-10-12T17:10:39.472Z,66.48
2018-10-12T17:13:07.966Z,66.04
2018-10-12T17:15:36.393Z,66.98
2018-10-12T17:18:09.054Z,67.63
2018-10-12T17:20:39.437Z,68.13
2018-10-12T17:23:08.240Z,68.66
2018-10-12T17:25:37.989Z,68.70
2018-10-12T17:28:08.656Z,69.22
2018-10-12T17:30:37.423Z,69.24
2018-10-12T17:33:06.995Z,69.70
2018-10-12T17:35:38.610Z,70.29
2018-10-12T17:38:08.319Z,69.69
2018-10-12T17:40:38.550Z,70.50
2018-10-12T17:43:07.261Z,70.35
2018-10-12T17:45:36.197Z,70.79
2018-10-12T17:48:06.608Z,71.18
2018-10-12T17:50:37.411Z,71.34
2018-10-12T17:53:06.320Z,72.30
2018-10-12T17:55:37.601Z,72.24
2018-10-12T17:58:07.350Z,72.33
2018-10-12T18:00:37.442Z,72.97
2018-10-12T18:03:08.224Z,72.54
2018-10-12T18:05:36.579Z,72.39
2018-10-12T18:08:05.756Z,73.24
2018-10-12T18:10:34.261Z,73.58
2018-10-12T18:13:05.235Z,73.40
2018-10-12T18:15:36.807Z,74.10
2018-10-12T18:18:06.035Z,74.03
2018-10-12T18:20:38.428Z,74.07
2018-10-12T18:23:11.779Z,74.16
2018-10-12T18:25:41.633Z,74.83
2018-10-12T18:28:11.591Z,76.63
2018-10-12T18:30:41.268Z,76.89
2018-10-12T18:33:11.375Z,76.60
2018-10-12T18:35:44.617Z,76.45
2018-10-12T18:38:14.293Z,77.14
2018-10-12T18:43:27.941Z,77.07
2018-10-12T18:45:56.562Z,77.10
2018-10-12T18:48:25.149Z,77.17
2018-10-12T18:50:53.655Z,77.19
2018-10-12T18:53:22.044Z,79.63
2018-10-12T18:55:50.499Z,80.10
2018-10-12T18:58:20.333Z,79.11
2018-10-12T19:00:50.812Z,79.91
2018-10-12T19:03:22.037Z,78.82
2018-10-12T19:05:51.380Z,78.91
2018-10-12T19:08:20.703Z,79.59
2018-10-12T19:10:50.999Z,79.64
2018-10-12T19:13:20.449Z,79.14
2018-10-12T19:15:54.649Z,80.59
2018-10-12T19:18:43.465Z,80.98
2018-10-12T19:21:12.436Z,80.76
2018-10-12T19:23:41.755Z,81.69
2018-10-12T19:26:12.869Z,81.88
2018-10-12T19:28:43.048Z,82.06
2018-10-12T19:33:51.773Z,81.81
2018-10-12T19:36:24.464Z,81.07
2018-10-12T19:38:54.230Z,80.98
2018-10-12T19:41:34.377Z,82.25
2018-10-12T19:44:03.499Z,82.66
2018-10-12T19:46:39.657Z,82.08
2018-10-12T19:49:10.474Z,82.18
2018-10-12T19:51:50.417Z,83.40
2018-10-12T19:54:23.821Z,84.35
2018-10-12T19:56:53.359Z,84.25
2018-10-12T19:59:23.845Z,84.38
2018-10-12T20:01:57.817Z,84.75
2018-10-12T20:04:26.817Z,84.74
2018-10-12T20:06:57.447Z,84.27
2018-10-12T20:09:32.799Z,84.60
2018-10-12T20:12:04.859Z,84.25
2018-10-12T20:14:34.411Z,83.40
2018-10-12T20:17:06.396Z,83.28
2018-10-12T20:19:37.174Z,83.95
2018-10-12T20:22:09.825Z,83.43
2018-10-12T20:24:56.468Z,83.89
2018-10-12T20:27:26.675Z,86.95
2018-10-12T20:29:56.096Z,87.01
2018-10-12T20:32:25.249Z,86.82
2018-10-12T20:35:00.535Z,86.26
2018-10-12T20:37:32.128Z,85.87
2018-10-12T20:40:02.356Z,86.16
2018-10-12T20:42:33.789Z,85.93
2018-10-12T20:45:03.942Z,86.14
2018-10-12T20:47:34.974Z,85.99
2018-10-12T20:50:05.101Z,85.78
2018-10-12T20:52:36.603Z,85.81
2018-10-12T20:55:08.575Z,85.39
2018-10-12T20:57:42.039Z,85.67
2018-10-12T21:00:11.964Z,85.39
2018-10-12T21:02:40.233Z,86.70
2018-10-12T21:05:09.813Z,86.89
2018-10-12T21:07:39.518Z,86.49
2018-10-12T21:10:09.693Z,86.50
2018-10-12T21:12:38.201Z,86.93
2018-10-12T21:15:09.433Z,87.39
2018-10-12T21:17:39.054Z,87.62
2018-10-12T21:20:11.352Z,88.21
2018-10-12T21:22:43.888Z,88.39
2018-10-12T21:25:14.475Z,88.61
2018-10-12T21:27:43.027Z,88.83
2018-10-12T21:30:12.521Z,88.03
2018-10-12T21:32:41.847Z,87.81
2018-10-12T21:35:10.316Z,86.84
2018-10-12T21:37:40.089Z,87.08
2018-10-12T21:40:12.817Z,87.02
2018-10-12T21:42:42.302Z,87.91
2018-10-12T21:45:13.443Z,88.46
2018-10-12T21:47:41.940Z,89.67
2018-10-12T21:50:12.620Z,89.87
2018-10-12T21:52:41.016Z,88.85
2018-10-12T21:55:09.258Z,88.61
2018-10-12T21:57:37.667Z,88.50
2018-10-12T22:00:07.165Z,88.07
2018-10-12T22:02:36.479Z,87.90
2018-10-12T22:05:05.848Z,88.00
2018-10-12T22:07:35.189Z,89.06
2018-10-12T22:10:05.791Z,89.77
2018-10-12T22:12:40.091Z,88.31
2018-10-12T22:15:11.501Z,89.75
2018-10-12T22:17:42.300Z,88.88
2018-10-12T22:20:14.452Z,89.70
2018-10-12T22:22:47.977Z,90.18
2018-10-12T22:25:17.075Z,89.75
2018-10-12T22:27:46.255Z,89.09
2018-10-12T22:30:15.348Z,89.98
2018-10-12T22:32:43.601Z,90.01
2018-10-12T22:35:15.860Z,90.39
2018-10-12T22:37:46.806Z,91.26
2018-10-12T22:40:15.510Z,91.33
2018-10-12T22:42:43.990Z,91.85
2018-10-12T22:45:13.104Z,90.91
2018-10-12T22:47:45.405Z,90.90
2018-10-12T22:50:15.738Z,91.29
2018-10-12T22:52:47.368Z,91.34
2018-10-12T22:55:16.773Z,91.39
2018-10-12T22:57:45.248Z,92.55
2018-10-12T23:00:14.994Z,92.73
2018-10-12T23:02:44.096Z,92.01
2018-10-12T23:05:18.710Z,92.41
2018-10-12T23:07:47.241Z,92.93
2018-10-12T23:10:16.121Z,93.26
2018-10-12T23:12:45.710Z,92.17
2018-10-12T23:15:14.631Z,91.44
2018-10-12T23:17:44.009Z,92.22
2018-10-12T23:20:18.630Z,91.37
2018-10-12T23:22:47.745Z,91.66
2018-10-12T23:25:16.805Z,91.42
2018-10-12T23:27:46.203Z,91.30
2018-10-12T23:30:16.245Z,90.95
2018-10-12T23:32:46.546Z,90.62
2018-10-12T23:35:15.031Z,91.70
2018-10-12T23:37:44.399Z,91.72
2018-10-12T23:40:14.302Z,91.21
2018-10-12T23:42:42.535Z,92.09
2018-10-12T23:45:12.257Z,92.20
2018-10-12T23:47:43.097Z,91.36
2018-10-12T23:50:13.305Z,91.07
2018-10-12T23:52:44.276Z,90.92
2018-10-12T23:55:45.470Z,91.58
2018-10-12T23:58:17.081Z,90.92
